sensor_id;sensor_type;location;lat;lon;timestamp;P1;durP1;ratioP1;P2;durP2;ratioP2
80421;SDS011;69763;50.182;9.144;2023-10-09T00:00:31;9.65;;;5.30;;
80421;SDS011;69763;50.182;9.144;2023-10-09T00:02:57;9.50;;;4.80;;
80421;SDS011;69763;50.182;9.144;2023-10-09T00:05:24;11.38;;;5.13;;
80421;SDS011;69763;50.182;9.144;2023-10-09T00:07:49;17.30;;;5.75;;
80421;SDS011;69763;50.182;9.144;2023-10-09T00:10:15;8.52;;;5.03;;
80421;SDS011;69763;50.182;9.144;2023-10-09T00:12:40;9.23;;;4.22;;
80421;SDS011;69763;50.182;9.144;2023-10-09T00:15:06;8.98;;;4.78;;
80421;SDS011;69763;50.182;9.144;2023-10-09T00:17:33;10.35;;;4.93;;
80421;SDS011;69763;50.182;9.144;2023-10-09T00:19:59;9.38;;;4.68;;
80421;SDS011;69763;50.182;9.144;2023-10-09T00:22:28;11.05;;;4.88;;
80421;SDS011;69763;50.182;9.144;2023-10-09T00:24:53;9.88;;;4.78;;
80421;SDS011;69763;50.182;9.144;2023-10-09T00:27:19;16.88;;;5.53;;
80421;SDS011;69763;50.182;9.144;2023-10-09T00:29:45;11.50;;;4.70;;
80421;SDS011;69763;50.182;9.144;2023-10-09T00:32:10;6.95;;;4.00;;
80421;SDS011;69763;50.182;9.144;2023-10-09T00:34:36;10.85;;;4.35;;
80421;SDS011;69763;50.182;9.144;2023-10-09T00:37:01;11.55;;;4.72;;
80421;SDS011;69763;50.182;9.144;2023-10-09T00:39:30;11.23;;;4.82;;
80421;SDS011;69763;50.182;9.144;2023-10-09T00:41:56;8.57;;;4.13;;
80421;SDS011;69763;50.182;9.144;2023-10-09T00:44:21;8.02;;;4.38;;
80421;SDS011;69763;50.182;9.144;2023-10-09T00:46:47;13.02;;;5.18;;
80421;SDS011;69763;50.182;9.144;2023-10-09T00:49:13;12.63;;;5.07;;
80421;SDS011;69763;50.182;9.144;2023-10-09T00:51:38;11.48;;;4.57;;
80421;SDS011;69763;50.182;9.144;2023-10-09T00:54:12;8.90;;;4.50;;
80421;SDS011;69763;50.182;9.144;2023-10-09T00:56:39;11.10;;;4.65;;
80421;SDS011;69763;50.182;9.144;2023-10-09T00:59:06;13.60;;;4.70;;
80421;SDS011;69763;50.182;9.144;2023-10-09T01:01:33;9.88;;;4.65;;
80421;SDS011;69763;50.182;9.144;2023-10-09T01:03:59;9.05;;;4.22;;
80421;SDS011;69763;50.182;9.144;2023-10-09T01:06:24;11.35;;;4.60;;
80421;SDS011;69763;50.182;9.144;2023-10-09T01:08:50;8.45;;;4.00;;
80421;SDS011;69763;50.182;9.144;2023-10-09T01:11:16;10.85;;;4.32;;
80421;SDS011;69763;50.182;9.144;2023-10-09T01:16:09;9.30;;;4.40;;
80421;SDS011;69763;50.182;9.144;2023-10-09T01:18:34;8.73;;;4.13;;
80421;SDS011;69763;50.182;9.144;2023-10-09T01:21:00;10.40;;;4.55;;
80421;SDS011;69763;50.182;9.144;2023-10-09T01:23:27;9.85;;;4.00;;
80421;SDS011;69763;50.182;9.144;2023-10-09T01:25:53;9.65;;;4.68;;
80421;SDS011;69763;50.182;9.144;2023-10-09T01:28:18;6.32;;;3.90;;
80421;SDS011;69763;50.182;9.144;2023-10-09T01:30:44;11.30;;;6.00;;
80421;SDS011;69763;50.182;9.144;2023-10-09T01:33:09;12.30;;;4.10;;
80421;SDS011;69763;50.182;9.144;2023-10-09T01:35:35;8.48;;;4.28;;
80421;SDS011;69763;50.182;9.144;2023-10-09T01:38:00;6.53;;;3.80;;
80421;SDS011;69763;50.182;9.144;2023-10-09T01:40:29;13.18;;;4.63;;
80421;SDS011;69763;50.182;9.144;2023-10-09T01:42:55;8.48;;;4.10;;
80421;SDS011;69763;50.182;9.144;2023-10-09T01:45:20;7.05;;;4.15;;
80421;SDS011;69763;50.182;9.144;2023-10-09T01:47:47;8.00;;;3.70;;
80421;SDS011;69763;50.182;9.144;2023-10-09T01:50:12;9.40;;;4.03;;
80421;SDS011;69763;50.182;9.144;2023-10-09T01:52:38;9.27;;;3.90;;
80421;SDS011;69763;50.182;9.144;2023-10-09T01:55:04;9.13;;;4.00;;
80421;SDS011;69763;50.182;9.144;2023-10-09T01:57:32;6.93;;;3.88;;
80421;SDS011;69763;50.182;9.144;2023-10-09T01:59:59;11.13;;;4.25;;
80421;SDS011;69763;50.182;9.144;2023-10-09T02:02:24;8.50;;;4.75;;
80421;SDS011;69763;50.182;9.144;2023-10-09T02:04:50;11.77;;;4.68;;
80421;SDS011;69763;50.182;9.144;2023-10-09T02:07:16;9.88;;;4.70;;
80421;SDS011;69763;50.182;9.144;2023-10-09T02:09:41;10.88;;;4.50;;
80421;SDS011;69763;50.182;9.144;2023-10-09T02:12:07;8.95;;;4.65;;
80421;SDS011;69763;50.182;9.144;2023-10-09T02:14:34;10.80;;;3.85;;
80421;SDS011;69763;50.182;9.144;2023-10-09T02:17:00;8.65;;;4.07;;
80421;SDS011;69763;50.182;9.144;2023-10-09T02:19:26;6.40;;;3.95;;
80421;SDS011;69763;50.182;9.144;2023-10-09T02:21:52;11.60;;;4.38;;
80421;SDS011;69763;50.182;9.144;2023-10-09T02:24:17;6.63;;;4.32;;
80421;SDS011;69763;50.182;9.144;2023-10-09T02:26:43;8.75;;;4.32;;
80421;SDS011;69763;50.182;9.144;2023-10-09T02:29:08;10.35;;;4.35;;
80421;SDS011;69763;50.182;9.144;2023-10-09T02:31:36;8.70;;;4.10;;
80421;SDS011;69763;50.182;9.144;2023-10-09T02:34:02;14.55;;;4.75;;
80421;SDS011;69763;50.182;9.144;2023-10-09T02:36:27;11.20;;;4.40;;
80421;SDS011;69763;50.182;9.144;2023-10-09T02:38:53;14.90;;;4.50;;
80421;SDS011;69763;50.182;9.144;2023-10-09T02:41:18;9.98;;;4.25;;
80421;SDS011;69763;50.182;9.144;2023-10-09T02:43:43;13.75;;;4.85;;
80421;SDS011;69763;50.182;9.144;2023-10-09T02:46:09;7.95;;;4.10;;
80421;SDS011;69763;50.182;9.144;2023-10-09T02:48:36;9.07;;;4.35;;
80421;SDS011;69763;50.182;9.144;2023-10-09T02:51:01;10.18;;;4.15;;
80421;SDS011;69763;50.182;9.144;2023-10-09T02:53:27;7.18;;;3.92;;
80421;SDS011;69763;50.182;9.144;2023-10-09T02:55:52;8.30;;;4.43;;
80421;SDS011;69763;50.182;9.144;2023-10-09T02:58:18;8.52;;;4.25;;
80421;SDS011;69763;50.182;9.144;2023-10-09T03:00:43;9.27;;;4.97;;
80421;SDS011;69763;50.182;9.144;2023-10-09T03:03:09;11.65;;;4.63;;
80421;SDS011;69763;50.182;9.144;2023-10-09T03:05:36;10.25;;;3.72;;
80421;SDS011;69763;50.182;9.144;2023-10-09T03:08:02;8.20;;;4.18;;
80421;SDS011;69763;50.182;9.144;2023-10-09T03:10:28;10.93;;;4.50;;
80421;SDS011;69763;50.182;9.144;2023-10-09T03:12:54;8.45;;;4.38;;
80421;SDS011;69763;50.182;9.144;2023-10-09T03:15:19;9.70;;;5.38;;
80421;SDS011;69763;50.182;9.144;2023-10-09T03:17:45;10.25;;;5.05;;
80421;SDS011;69763;50.182;9.144;2023-10-09T03:20:11;8.93;;;4.22;;
80421;SDS011;69763;50.182;9.144;2023-10-09T03:22:38;9.98;;;5.25;;
80421;SDS011;69763;50.182;9.144;2023-10-09T03:25:04;8.02;;;3.78;;
80421;SDS011;69763;50.182;9.144;2023-10-09T03:27:30;11.27;;;4.55;;
80421;SDS011;69763;50.182;9.144;2023-10-09T03:29:55;11.23;;;4.75;;
80421;SDS011;69763;50.182;9.144;2023-10-09T03:32:21;9.48;;;4.78;;
80421;SDS011;69763;50.182;9.144;2023-10-09T03:34:46;9.55;;;4.40;;
80421;SDS011;69763;50.182;9.144;2023-10-09T03:37:12;10.07;;;5.05;;
80421;SDS011;69763;50.182;9.144;2023-10-09T03:39:39;6.88;;;4.25;;
80421;SDS011;69763;50.182;9.144;2023-10-09T03:42:04;10.88;;;4.32;;
80421;SDS011;69763;50.182;9.144;2023-10-09T03:44:30;9.43;;;4.93;;
80421;SDS011;69763;50.182;9.144;2023-10-09T03:46:56;10.23;;;4.95;;
80421;SDS011;69763;50.182;9.144;2023-10-09T03:49:22;11.65;;;4.97;;
80421;SDS011;69763;50.182;9.144;2023-10-09T03:51:47;9.02;;;4.63;;
80421;SDS011;69763;50.182;9.144;2023-10-09T03:54:13;10.43;;;4.55;;
80421;SDS011;69763;50.182;9.144;2023-10-09T03:56:41;9.80;;;4.63;;
80421;SDS011;69763;50.182;9.144;2023-10-09T03:59:06;12.68;;;4.82;;
80421;SDS011;69763;50.182;9.144;2023-10-09T04:01:32;7.85;;;4.20;;
80421;SDS011;69763;50.182;9.144;2023-10-09T04:03:58;11.55;;;5.32;;
80421;SDS011;69763;50.182;9.144;2023-10-09T04:06:25;10.23;;;4.55;;
80421;SDS011;69763;50.182;9.144;2023-10-09T04:08:51;8.00;;;4.72;;
80421;SDS011;69763;50.182;9.144;2023-10-09T04:11:16;8.00;;;4.68;;
80421;SDS011;69763;50.182;9.144;2023-10-09T04:13:43;11.20;;;4.95;;
80421;SDS011;69763;50.182;9.144;2023-10-09T04:16:09;10.82;;;4.43;;
80421;SDS011;69763;50.182;9.144;2023-10-09T04:18:34;10.23;;;4.20;;
80421;SDS011;69763;50.182;9.144;2023-10-09T04:21:00;9.77;;;4.82;;
80421;SDS011;69763;50.182;9.144;2023-10-09T04:23:25;10.38;;;4.75;;
80421;SDS011;69763;50.182;9.144;2023-10-09T04:25:50;7.43;;;4.43;;
80421;SDS011;69763;50.182;9.144;2023-10-09T04:28:16;11.68;;;5.85;;
80421;SDS011;69763;50.182;9.144;2023-10-09T04:30:42;11.68;;;5.53;;
80421;SDS011;69763;50.182;9.144;2023-10-09T04:33:08;17.00;;;5.72;;
80421;SDS011;69763;50.182;9.144;2023-10-09T04:35:33;8.10;;;4.72;;
80421;SDS011;69763;50.182;9.144;2023-10-09T04:37:59;10.60;;;5.47;;
80421;SDS011;69763;50.182;9.144;2023-10-09T04:40:24;15.45;;;5.20;;
80421;SDS011;69763;50.182;9.144;2023-10-09T04:42:49;12.07;;;5.35;;
80421;SDS011;69763;50.182;9.144;2023-10-09T04:47:43;11.90;;;4.70;;
80421;SDS011;69763;50.182;9.144;2023-10-09T04:50:09;11.02;;;4.75;;
80421;SDS011;69763;50.182;9.144;2023-10-09T04:52:35;12.57;;;4.85;;
80421;SDS011;69763;50.182;9.144;2023-10-09T04:55:01;13.13;;;4.90;;
80421;SDS011;69763;50.182;9.144;2023-10-09T04:57:27;13.38;;;4.70;;
80421;SDS011;69763;50.182;9.144;2023-10-09T04:59:52;10.55;;;5.53;;
80421;SDS011;69763;50.182;9.144;2023-10-09T05:02:18;11.88;;;5.72;;
80421;SDS011;69763;50.182;9.144;2023-10-09T05:04:44;13.27;;;4.95;;
80421;SDS011;69763;50.182;9.144;2023-10-09T05:07:11;10.68;;;4.70;;
80421;SDS011;69763;50.182;9.144;2023-10-09T05:09:36;10.10;;;5.47;;
80421;SDS011;69763;50.182;9.144;2023-10-09T05:12:01;6.93;;;4.38;;
80421;SDS011;69763;50.182;9.144;2023-10-09T05:14:27;13.40;;;5.50;;
80421;SDS011;69763;50.182;9.144;2023-10-09T05:16:53;13.82;;;5.72;;
80421;SDS011;69763;50.182;9.144;2023-10-09T05:19:18;11.65;;;4.88;;
80421;SDS011;69763;50.182;9.144;2023-10-09T05:21:45;8.98;;;4.78;;
80421;SDS011;69763;50.182;9.144;2023-10-09T05:24:11;13.13;;;5.57;;
80421;SDS011;69763;50.182;9.144;2023-10-09T05:26:37;9.82;;;5.22;;
80421;SDS011;69763;50.182;9.144;2023-10-09T05:29:03;11.73;;;4.70;;
80421;SDS011;69763;50.182;9.144;2023-10-09T05:31:28;18.60;;;5.40;;
80421;SDS011;69763;50.182;9.144;2023-10-09T05:33:53;11.88;;;4.50;;
80421;SDS011;69763;50.182;9.144;2023-10-09T05:36:19;12.52;;;5.60;;
80421;SDS011;69763;50.182;9.144;2023-10-09T05:38:46;15.52;;;5.35;;
80421;SDS011;69763;50.182;9.144;2023-10-09T05:41:11;12.07;;;5.97;;
80421;SDS011;69763;50.182;9.144;2023-10-09T05:43:37;11.13;;;5.45;;
80421;SDS011;69763;50.182;9.144;2023-10-09T05:46:02;9.68;;;4.78;;
80421;SDS011;69763;50.182;9.144;2023-10-09T05:50:54;8.77;;;4.03;;
80421;SDS011;69763;50.182;9.144;2023-10-09T05:53:19;12.15;;;5.47;;
80421;SDS011;69763;50.182;9.144;2023-10-09T05:55:46;10.27;;;5.30;;
80421;SDS011;69763;50.182;9.144;2023-10-09T06:00:37;13.97;;;6.03;;
80421;SDS011;69763;50.182;9.144;2023-10-09T06:03:03;10.52;;;5.03;;
80421;SDS011;69763;50.182;9.144;2023-10-09T06:05:29;11.68;;;5.07;;
80421;SDS011;69763;50.182;9.144;2023-10-09T06:07:54;8.73;;;4.60;;
80421;SDS011;69763;50.182;9.144;2023-10-09T06:10:19;8.07;;;4.13;;
80421;SDS011;69763;50.182;9.144;2023-10-09T06:12:46;7.00;;;4.10;;
80421;SDS011;69763;50.182;9.144;2023-10-09T06:17:37;8.80;;;4.33;;
80421;SDS011;69763;50.182;9.144;2023-10-09T06:20:02;10.95;;;5.40;;
80421;SDS011;69763;50.182;9.144;2023-10-09T06:22:28;9.27;;;5.40;;
80421;SDS011;69763;50.182;9.144;2023-10-09T06:24:54;9.73;;;5.30;;
80421;SDS011;69763;50.182;9.144;2023-10-09T06:27:19;11.57;;;5.90;;
80421;SDS011;69763;50.182;9.144;2023-10-09T06:29:47;11.70;;;5.57;;
80421;SDS011;69763;50.182;9.144;2023-10-09T06:34:37;9.60;;;4.50;;
80421;SDS011;69763;50.182;9.144;2023-10-09T06:37:03;8.98;;;5.30;;
80421;SDS011;69763;50.182;9.144;2023-10-09T06:39:28;12.90;;;5.78;;
80421;SDS011;69763;50.182;9.144;2023-10-09T06:41:54;15.45;;;6.78;;
80421;SDS011;69763;50.182;9.144;2023-10-09T06:44:19;11.68;;;6.10;;
80421;SDS011;69763;50.182;9.144;2023-10-09T06:46:46;11.43;;;5.97;;
80421;SDS011;69763;50.182;9.144;2023-10-09T06:49:11;14.40;;;6.07;;
80421;SDS011;69763;50.182;9.144;2023-10-09T06:51:36;11.65;;;6.25;;
80421;SDS011;69763;50.182;9.144;2023-10-09T06:54:02;12.73;;;5.53;;
80421;SDS011;69763;50.182;9.144;2023-10-09T06:56:28;14.55;;;6.43;;
80421;SDS011;69763;50.182;9.144;2023-10-09T06:58:54;12.98;;;6.00;;
80421;SDS011;69763;50.182;9.144;2023-10-09T07:01:20;10.77;;;5.80;;
80421;SDS011;69763;50.182;9.144;2023-10-09T07:03:46;8.75;;;5.15;;
80421;SDS011;69763;50.182;9.144;2023-10-09T07:06:12;9.82;;;5.30;;
80421;SDS011;69763;50.182;9.144;2023-10-09T07:08:37;10.57;;;5.97;;
80421;SDS011;69763;50.182;9.144;2023-10-09T07:11:03;9.50;;;5.10;;
80421;SDS011;69763;50.182;9.144;2023-10-09T07:13:28;9.98;;;5.78;;
80421;SDS011;69763;50.182;9.144;2023-10-09T07:15:54;13.88;;;5.40;;
80421;SDS011;69763;50.182;9.144;2023-10-09T07:18:19;11.30;;;5.75;;
80421;SDS011;69763;50.182;9.144;2023-10-09T07:20:46;12.90;;;5.25;;
80421;SDS011;69763;50.182;9.144;2023-10-09T07:23:11;13.23;;;5.53;;
80421;SDS011;69763;50.182;9.144;2023-10-09T07:25:36;11.55;;;5.93;;
80421;SDS011;69763;50.182;9.144;2023-10-09T07:28:02;14.15;;;5.75;;
80421;SDS011;69763;50.182;9.144;2023-10-09T07:30:28;8.80;;;5.05;;
80421;SDS011;69763;50.182;9.144;2023-10-09T07:32:53;18.60;;;5.93;;
80421;SDS011;69763;50.182;9.144;2023-10-09T07:35:19;11.00;;;5.97;;
80421;SDS011;69763;50.182;9.144;2023-10-09T07:37:45;11.02;;;5.65;;
80421;SDS011;69763;50.182;9.144;2023-10-09T07:40:11;11.73;;;5.72;;
80421;SDS011;69763;50.182;9.144;2023-10-09T07:42:37;12.15;;;6.45;;
80421;SDS011;69763;50.182;9.144;2023-10-09T07:45:02;12.93;;;6.22;;
80421;SDS011;69763;50.182;9.144;2023-10-09T07:47:28;13.57;;;6.15;;
80421;SDS011;69763;50.182;9.144;2023-10-09T07:49:53;8.15;;;5.80;;
80421;SDS011;69763;50.182;9.144;2023-10-09T07:52:20;13.07;;;5.53;;
80421;SDS011;69763;50.182;9.144;2023-10-09T07:54:47;15.23;;;5.70;;
80421;SDS011;69763;50.182;9.144;2023-10-09T07:57:13;12.40;;;6.32;;
80421;SDS011;69763;50.182;9.144;2023-10-09T07:59:38;15.73;;;8.35;;
80421;SDS011;69763;50.182;9.144;2023-10-09T08:02:04;12.15;;;6.00;;
80421;SDS011;69763;50.182;9.144;2023-10-09T08:04:30;14.23;;;7.15;;
80421;SDS011;69763;50.182;9.144;2023-10-09T08:06:55;13.98;;;7.32;;
80421;SDS011;69763;50.182;9.144;2023-10-09T08:09:20;14.30;;;7.45;;
80421;SDS011;69763;50.182;9.144;2023-10-09T08:11:48;10.45;;;6.35;;
80421;SDS011;69763;50.182;9.144;2023-10-09T08:14:14;15.43;;;6.22;;
80421;SDS011;69763;50.182;9.144;2023-10-09T08:16:40;10.80;;;6.35;;
80421;SDS011;69763;50.182;9.144;2023-10-09T08:19:05;9.98;;;5.60;;
80421;SDS011;69763;50.182;9.144;2023-10-09T08:21:30;12.35;;;6.38;;
80421;SDS011;69763;50.182;9.144;2023-10-09T08:23:56;13.38;;;6.50;;
80421;SDS011;69763;50.182;9.144;2023-10-09T08:26:21;10.27;;;5.60;;
80421;SDS011;69763;50.182;9.144;2023-10-09T08:28:48;14.43;;;6.18;;
80421;SDS011;69763;50.182;9.144;2023-10-09T08:31:14;9.25;;;5.05;;
80421;SDS011;69763;50.182;9.144;2023-10-09T08:33:41;17.88;;;5.35;;
80421;SDS011;69763;50.182;9.144;2023-10-09T08:36:07;13.45;;;5.78;;
80421;SDS011;69763;50.182;9.144;2023-10-09T08:38:32;10.43;;;5.47;;
80421;SDS011;69763;50.182;9.144;2023-10-09T08:41:05;14.77;;;5.68;;
80421;SDS011;69763;50.182;9.144;2023-10-09T08:43:31;10.02;;;5.20;;
80421;SDS011;69763;50.182;9.144;2023-10-09T08:46:00;11.18;;;5.25;;
80421;SDS011;69763;50.182;9.144;2023-10-09T08:48:27;10.88;;;5.20;;
80421;SDS011;69763;50.182;9.144;2023-10-09T08:50:54;13.57;;;5.50;;
80421;SDS011;69763;50.182;9.144;2023-10-09T08:53:21;13.18;;;5.30;;
80421;SDS011;69763;50.182;9.144;2023-10-09T08:55:47;12.38;;;5.03;;
80421;SDS011;69763;50.182;9.144;2023-10-09T08:58:14;14.10;;;4.97;;
80421;SDS011;69763;50.182;9.144;2023-10-09T09:00:40;9.75;;;5.00;;
80421;SDS011;69763;50.182;9.144;2023-10-09T09:03:06;10.52;;;5.70;;
80421;SDS011;69763;50.182;9.144;2023-10-09T09:05:32;15.00;;;6.20;;
80421;SDS011;69763;50.182;9.144;2023-10-09T09:07:57;16.02;;;5.60;;
80421;SDS011;69763;50.182;9.144;2023-10-09T09:10:26;13.20;;;5.28;;
80421;SDS011;69763;50.182;9.144;2023-10-09T09:12:52;10.27;;;5.05;;
80421;SDS011;69763;50.182;9.144;2023-10-09T09:15:19;11.38;;;5.53;;
80421;SDS011;69763;50.182;9.144;2023-10-09T09:17:45;11.15;;;5.13;;
80421;SDS011;69763;50.182;9.144;2023-10-09T09:20:22;9.45;;;4.80;;
80421;SDS011;69763;50.182;9.144;2023-10-09T09:22:52;11.50;;;4.68;;
80421;SDS011;69763;50.182;9.144;2023-10-09T09:25:18;9.15;;;4.45;;
80421;SDS011;69763;50.182;9.144;2023-10-09T09:27:44;13.48;;;5.50;;
80421;SDS011;69763;50.182;9.144;2023-10-09T09:30:13;9.35;;;4.60;;
80421;SDS011;69763;50.182;9.144;2023-10-09T09:32:47;13.13;;;5.25;;
80421;SDS011;69763;50.182;9.144;2023-10-09T09:35:12;14.45;;;5.03;;
80421;SDS011;69763;50.182;9.144;2023-10-09T09:37:39;10.68;;;5.28;;
80421;SDS011;69763;50.182;9.144;2023-10-09T09:40:05;11.63;;;5.22;;
80421;SDS011;69763;50.182;9.144;2023-10-09T09:42:31;10.75;;;5.28;;
80421;SDS011;69763;50.182;9.144;2023-10-09T09:44:57;12.85;;;5.78;;
80421;SDS011;69763;50.182;9.144;2023-10-09T09:47:25;11.68;;;5.97;;
80421;SDS011;69763;50.182;9.144;2023-10-09T09:49:52;12.82;;;5.20;;
80421;SDS011;69763;50.182;9.144;2023-10-09T09:52:17;10.40;;;4.70;;
80421;SDS011;69763;50.182;9.144;2023-10-09T09:54:44;17.33;;;5.45;;
80421;SDS011;69763;50.182;9.144;2023-10-09T09:57:12;14.30;;;4.78;;
80421;SDS011;69763;50.182;9.144;2023-10-09T09:59:39;11.85;;;5.18;;
80421;SDS011;69763;50.182;9.144;2023-10-09T10:02:05;10.70;;;4.95;;
80421;SDS011;69763;50.182;9.144;2023-10-09T10:04:35;9.80;;;4.97;;
80421;SDS011;69763;50.182;9.144;2023-10-09T10:07:03;10.13;;;4.70;;
80421;SDS011;69763;50.182;9.144;2023-10-09T10:09:34;10.23;;;4.60;;
80421;SDS011;69763;50.182;9.144;2023-10-09T10:12:01;14.27;;;5.32;;
80421;SDS011;69763;50.182;9.144;2023-10-09T10:14:27;15.90;;;4.80;;
80421;SDS011;69763;50.182;9.144;2023-10-09T10:17:16;11.90;;;4.68;;
80421;SDS011;69763;50.182;9.144;2023-10-09T10:22:26;15.15;;;5.82;;
80421;SDS011;69763;50.182;9.144;2023-10-09T10:24:52;11.95;;;4.90;;
80421;SDS011;69763;50.182;9.144;2023-10-09T10:27:19;10.60;;;4.95;;
80421;SDS011;69763;50.182;9.144;2023-10-09T10:29:45;9.07;;;4.68;;
80421;SDS011;69763;50.182;9.144;2023-10-09T10:32:11;13.27;;;4.85;;
80421;SDS011;69763;50.182;9.144;2023-10-09T10:34:51;16.85;;;5.85;;
80421;SDS011;69763;50.182;9.144;2023-10-09T10:37:17;14.98;;;4.95;;
80421;SDS011;69763;50.182;9.144;2023-10-09T10:39:49;12.45;;;4.53;;
80421;SDS011;69763;50.182;9.144;2023-10-09T10:42:15;13.20;;;4.95;;
80421;SDS011;69763;50.182;9.144;2023-10-09T10:44:41;10.07;;;4.65;;
80421;SDS011;69763;50.182;9.144;2023-10-09T10:47:08;9.30;;;4.38;;
80421;SDS011;69763;50.182;9.144;2023-10-09T10:49:34;11.70;;;4.88;;
80421;SDS011;69763;50.182;9.144;2023-10-09T10:52:00;11.57;;;4.20;;
80421;SDS011;69763;50.182;9.144;2023-10-09T10:54:25;12.15;;;5.03;;
80421;SDS011;69763;50.182;9.144;2023-10-09T10:56:51;12.55;;;4.05;;
80421;SDS011;69763;50.182;9.144;2023-10-09T10:59:16;12.02;;;4.68;;
80421;SDS011;69763;50.182;9.144;2023-10-09T11:01:43;12.90;;;4.13;;
80421;SDS011;69763;50.182;9.144;2023-10-09T11:04:10;12.63;;;4.80;;
80421;SDS011;69763;50.182;9.144;2023-10-09T11:06:36;14.45;;;4.22;;
80421;SDS011;69763;50.182;9.144;2023-10-09T11:09:02;8.80;;;4.03;;
80421;SDS011;69763;50.182;9.144;2023-10-09T11:11:28;8.77;;;3.92;;
80421;SDS011;69763;50.182;9.144;2023-10-09T11:13:53;11.65;;;5.85;;
80421;SDS011;69763;50.182;9.144;2023-10-09T11:16:19;13.32;;;4.20;;
80421;SDS011;69763;50.182;9.144;2023-10-09T11:18:46;11.73;;;4.60;;
80421;SDS011;69763;50.182;9.144;2023-10-09T11:21:13;11.82;;;4.10;;
80421;SDS011;69763;50.182;9.144;2023-10-09T11:23:39;14.40;;;4.53;;
80421;SDS011;69763;50.182;9.144;2023-10-09T11:26:07;12.35;;;3.95;;
80421;SDS011;69763;50.182;9.144;2023-10-09T11:28:34;11.75;;;4.07;;
80421;SDS011;69763;50.182;9.144;2023-10-09T11:31:06;12.65;;;4.50;;
80421;SDS011;69763;50.182;9.144;2023-10-09T11:33:41;17.70;;;4.78;;
80421;SDS011;69763;50.182;9.144;2023-10-09T11:36:09;13.73;;;4.10;;
80421;SDS011;69763;50.182;9.144;2023-10-09T11:38:35;9.88;;;4.30;;
80421;SDS011;69763;50.182;9.144;2023-10-09T11:41:11;9.18;;;4.20;;
80421;SDS011;69763;50.182;9.144;2023-10-09T11:43:46;8.45;;;3.92;;
80421;SDS011;69763;50.182;9.144;2023-10-09T11:46:12;9.57;;;4.03;;
80421;SDS011;69763;50.182;9.144;2023-10-09T11:48:38;10.18;;;4.38;;
80421;SDS011;69763;50.182;9.144;2023-10-09T11:51:03;9.43;;;3.65;;
80421;SDS011;69763;50.182;9.144;2023-10-09T11:53:39;8.82;;;4.30;;
80421;SDS011;69763;50.182;9.144;2023-10-09T11:56:05;11.75;;;4.85;;
80421;SDS011;69763;50.182;9.144;2023-10-09T11:58:30;11.35;;;4.32;;
80421;SDS011;69763;50.182;9.144;2023-10-09T12:00:56;10.10;;;4.35;;
80421;SDS011;69763;50.182;9.144;2023-10-09T12:03:23;11.73;;;4.18;;
80421;SDS011;69763;50.182;9.144;2023-10-09T12:05:49;9.27;;;4.30;;
80421;SDS011;69763;50.182;9.144;2023-10-09T12:08:15;12.85;;;3.88;;
80421;SDS011;69763;50.182;9.144;2023-10-09T12:10:41;11.48;;;3.97;;
80421;SDS011;69763;50.182;9.144;2023-10-09T12:13:07;11.20;;;5.00;;
80421;SDS011;69763;50.182;9.144;2023-10-09T12:15:33;9.25;;;4.85;;
80421;SDS011;69763;50.182;9.144;2023-10-09T12:17:58;11.90;;;4.30;;
80421;SDS011;69763;50.182;9.144;2023-10-09T12:20:24;10.70;;;3.88;;
80421;SDS011;69763;50.182;9.144;2023-10-09T12:22:49;13.27;;;4.75;;
80421;SDS011;69763;50.182;9.144;2023-10-09T12:25:14;9.73;;;5.05;;
80421;SDS011;69763;50.182;9.144;2023-10-09T12:27:41;13.57;;;5.03;;
80421;SDS011;69763;50.182;9.144;2023-10-09T12:30:07;12.80;;;4.22;;
80421;SDS011;69763;50.182;9.144;2023-10-09T12:32:33;11.20;;;4.57;;
80421;SDS011;69763;50.182;9.144;2023-10-09T12:34:58;9.05;;;4.28;;
80421;SDS011;69763;50.182;9.144;2023-10-09T12:37:24;13.88;;;4.03;;
80421;SDS011;69763;50.182;9.144;2023-10-09T12:39:49;11.60;;;4.43;;
80421;SDS011;69763;50.182;9.144;2023-10-09T12:42:15;12.57;;;4.00;;
80421;SDS011;69763;50.182;9.144;2023-10-09T12:44:41;9.93;;;3.70;;
80421;SDS011;69763;50.182;9.144;2023-10-09T12:47:07;7.50;;;3.40;;
80421;SDS011;69763;50.182;9.144;2023-10-09T12:49:33;13.18;;;3.85;;
80421;SDS011;69763;50.182;9.144;2023-10-09T12:51:58;9.88;;;3.95;;
80421;SDS011;69763;50.182;9.144;2023-10-09T12:54:24;11.48;;;4.28;;
80421;SDS011;69763;50.182;9.144;2023-10-09T12:56:50;12.20;;;3.95;;
80421;SDS011;69763;50.182;9.144;2023-10-09T12:59:15;9.00;;;4.03;;
80421;SDS011;69763;50.182;9.144;2023-10-09T13:01:42;11.00;;;4.13;;
80421;SDS011;69763;50.182;9.144;2023-10-09T13:04:07;11.23;;;3.70;;
80421;SDS011;69763;50.182;9.144;2023-10-09T13:06:33;9.52;;;4.10;;
80421;SDS011;69763;50.182;9.144;2023-10-09T13:08:58;13.52;;;3.67;;
80421;SDS011;69763;50.182;9.144;2023-10-09T13:11:24;11.57;;;4.25;;
80421;SDS011;69763;50.182;9.144;2023-10-09T13:13:49;9.68;;;3.63;;
80421;SDS011;69763;50.182;9.144;2023-10-09T13:16:15;9.52;;;3.83;;
80421;SDS011;69763;50.182;9.144;2023-10-09T13:18:42;13.27;;;4.30;;
80421;SDS011;69763;50.182;9.144;2023-10-09T13:21:08;11.02;;;4.13;;
80421;SDS011;69763;50.182;9.144;2023-10-09T13:23:33;10.60;;;3.95;;
80421;SDS011;69763;50.182;9.144;2023-10-09T13:25:58;12.50;;;3.63;;
80421;SDS011;69763;50.182;9.144;2023-10-09T13:28:24;10.07;;;4.10;;
80421;SDS011;69763;50.182;9.144;2023-10-09T13:30:49;9.38;;;3.83;;
80421;SDS011;69763;50.182;9.144;2023-10-09T13:33:15;8.75;;;3.80;;
80421;SDS011;69763;50.182;9.144;2023-10-09T13:35:41;10.57;;;4.22;;
80421;SDS011;69763;50.182;9.144;2023-10-09T13:38:07;8.48;;;4.13;;
80421;SDS011;69763;50.182;9.144;2023-10-09T13:40:32;14.40;;;4.22;;
80421;SDS011;69763;50.182;9.144;2023-10-09T13:42:57;11.20;;;4.20;;
80421;SDS011;69763;50.182;9.144;2023-10-09T13:45:23;10.52;;;3.63;;
80421;SDS011;69763;50.182;9.144;2023-10-09T13:47:48;10.30;;;3.80;;
80421;SDS011;69763;50.182;9.144;2023-10-09T13:50:14;12.25;;;4.28;;
80421;SDS011;69763;50.182;9.144;2023-10-09T13:52:41;8.98;;;4.03;;
80421;SDS011;69763;50.182;9.144;2023-10-09T13:55:06;10.25;;;4.10;;
80421;SDS011;69763;50.182;9.144;2023-10-09T13:59:58;9.33;;;3.70;;
80421;SDS011;69763;50.182;9.144;2023-10-09T14:02:23;10.18;;;3.80;;
80421;SDS011;69763;50.182;9.144;2023-10-09T14:04:49;8.93;;;3.95;;
80421;SDS011;69763;50.182;9.144;2023-10-09T14:07:14;8.88;;;3.97;;
80421;SDS011;69763;50.182;9.144;2023-10-09T14:09:41;10.60;;;4.63;;
80421;SDS011;69763;50.182;9.144;2023-10-09T14:12:07;12.10;;;4.43;;
80421;SDS011;69763;50.182;9.144;2023-10-09T14:14:33;9.52;;;3.72;;
80421;SDS011;69763;50.182;9.144;2023-10-09T14:16:59;9.23;;;3.70;;
80421;SDS011;69763;50.182;9.144;2023-10-09T14:19:24;13.05;;;4.05;;
80421;SDS011;69763;50.182;9.144;2023-10-09T14:21:50;8.18;;;3.65;;
80421;SDS011;69763;50.182;9.144;2023-10-09T14:24:15;12.25;;;4.65;;
80421;SDS011;69763;50.182;9.144;2023-10-09T14:26:42;8.48;;;4.28;;
80421;SDS011;69763;50.182;9.144;2023-10-09T14:29:07;10.75;;;3.95;;
80421;SDS011;69763;50.182;9.144;2023-10-09T14:31:33;11.93;;;4.05;;
80421;SDS011;69763;50.182;9.144;2023-10-09T14:33:58;15.18;;;4.00;;
80421;SDS011;69763;50.182;9.144;2023-10-09T14:36:24;12.73;;;4.10;;
80421;SDS011;69763;50.182;9.144;2023-10-09T14:38:49;9.02;;;3.70;;
80421;SDS011;69763;50.182;9.144;2023-10-09T14:41:15;12.82;;;4.47;;
80421;SDS011;69763;50.182;9.144;2023-10-09T14:43:42;13.35;;;4.10;;
80421;SDS011;69763;50.182;9.144;2023-10-09T14:46:12;8.10;;;3.40;;
80421;SDS011;69763;50.182;9.144;2023-10-09T14:48:38;12.27;;;4.50;;
80421;SDS011;69763;50.182;9.144;2023-10-09T14:51:04;15.27;;;4.43;;